sensor_id;sensor_type;location;lat;lon;timestamp;temperature;humidity
64869;DHT22;51349;52.424;10.840;2022-09-09T00:03:21;13.50;99.90
64869;DHT22;51349;52.424;10.840;2022-09-09T00:08:36;13.50;99.90
64869;DHT22;51349;52.424;10.840;2022-09-09T00:13:46;13.60;99.90
64869;DHT22;51349;52.424;10.840;2022-09-09T00:24:36;13.60;99.90
64869;DHT22;51349;52.424;10.840;2022-09-09T00:29:47;13.60;99.90
64869;DHT22;51349;52.424;10.840;2022-09-09T00:35:01;13.50;99.90
64869;DHT22;51349;52.424;10.840;2022-09-09T00:40:08;13.50;99.90
64869;DHT22;51349;52.424;10.840;2022-09-09T00:50:56;13.50;99.90
64869;DHT22;51349;52.424;10.840;2022-09-09T00:56:13;13.50;99.90
64869;DHT22;51349;52.424;10.840;2022-09-09T01:01:14;13.50;99.90
64869;DHT22;51349;52.424;10.840;2022-09-09T01:06:35;13.40;99.90
64869;DHT22;51349;52.424;10.840;2022-09-09T01:11:58;13.50;99.90
64869;DHT22;51349;52.424;10.840;2022-09-09T01:27:34;13.40;99.90
64869;DHT22;51349;52.424;10.840;2022-09-09T01:32:46;13.50;99.90
64869;DHT22;51349;52.424;10.840;2022-09-09T01:37:46;13.50;99.90
64869;DHT22;51349;52.424;10.840;2022-09-09T01:42:47;13.50;99.90
64869;DHT22;51349;52.424;10.840;2022-09-09T01:47:48;13.50;99.90
64869;DHT22;51349;52.424;10.840;2022-09-09T01:52:55;13.50;99.90
64869;DHT22;51349;52.424;10.840;2022-09-09T02:03:29;13.50;99.90
64869;DHT22;51349;52.424;10.840;2022-09-09T02:08:54;13.50;99.90
64869;DHT22;51349;52.424;10.840;2022-09-09T02:14:12;13.50;99.90
64869;DHT22;51349;52.424;10.840;2022-09-09T02:19:18;13.40;99.90
64869;DHT22;51349;52.424;10.840;2022-09-09T02:24:25;13.50;99.90
64869;DHT22;51349;52.424;10.840;2022-09-09T02:29:32;13.50;99.90
64869;DHT22;51349;52.424;10.840;2022-09-09T02:34:36;13.50;99.90
64869;DHT22;51349;52.424;10.840;2022-09-09T02:39:37;13.50;99.90
64869;DHT22;51349;52.424;10.840;2022-09-09T02:44:41;13.40;99.90
64869;DHT22;51349;52.424;10.840;2022-09-09T02:49:52;13.50;99.90
64869;DHT22;51349;52.424;10.840;2022-09-09T02:55:02;13.50;99.90
64869;DHT22;51349;52.424;10.840;2022-09-09T03:00:05;13.40;99.90
64869;DHT22;51349;52.424;10.840;2022-09-09T03:05:06;13.50;99.90
64869;DHT22;51349;52.424;10.840;2022-09-09T03:10:07;13.50;99.90
64869;DHT22;51349;52.424;10.840;2022-09-09T03:15:08;13.50;99.90
64869;DHT22;51349;52.424;10.840;2022-09-09T03:20:10;13.50;99.90
64869;DHT22;51349;52.424;10.840;2022-09-09T03:25:14;13.50;99.90
64869;DHT22;51349;52.424;10.840;2022-09-09T03:30:14;13.60;99.90
64869;DHT22;51349;52.424;10.840;2022-09-09T03:35:15;13.50;99.90
64869;DHT22;51349;52.424;10.840;2022-09-09T03:40:16;13.40;99.90
64869;DHT22;51349;52.424;10.840;2022-09-09T03:45:19;13.50;99.90
64869;DHT22;51349;52.424;10.840;2022-09-09T03:50:20;13.50;99.90
64869;DHT22;51349;52.424;10.840;2022-09-09T03:55:20;13.50;99.90
64869;DHT22;51349;52.424;10.840;2022-09-09T04:00:21;13.50;99.90
64869;DHT22;51349;52.424;10.840;2022-09-09T04:05:22;13.30;99.90
64869;DHT22;51349;52.424;10.840;2022-09-09T04:10:22;13.30;99.90
64869;DHT22;51349;52.424;10.840;2022-09-09T04:15:23;13.30;99.90
64869;DHT22;51349;52.424;10.840;2022-09-09T04:20:24;13.30;99.90
64869;DHT22;51349;52.424;10.840;2022-09-09T04:25:24;13.40;99.90
64869;DHT22;51349;52.424;10.840;2022-09-09T04:30:25;13.40;99.90
64869;DHT22;51349;52.424;10.840;2022-09-09T04:35:27;13.40;99.90
64869;DHT22;51349;52.424;10.840;2022-09-09T04:40:29;13.20;99.90
64869;DHT22;51349;52.424;10.840;2022-09-09T04:45:32;13.20;99.90
64869;DHT22;51349;52.424;10.840;2022-09-09T04:50:33;13.30;99.90
64869;DHT22;51349;52.424;10.840;2022-09-09T04:55:34;13.40;99.90
64869;DHT22;51349;52.424;10.840;2022-09-09T05:00:37;13.30;99.90
64869;DHT22;51349;52.424;10.840;2022-09-09T05:05:37;13.30;99.90
64869;DHT22;51349;52.424;10.840;2022-09-09T05:10:38;13.20;99.90
64869;DHT22;51349;52.424;10.840;2022-09-09T05:15:39;13.30;99.90
64869;DHT22;51349;52.424;10.840;2022-09-09T05:20:40;13.40;99.90
64869;DHT22;51349;52.424;10.840;2022-09-09T05:25:42;13.40;99.90
64869;DHT22;51349;52.424;10.840;2022-09-09T05:30:43;13.50;99.90
64869;DHT22;51349;52.424;10.840;2022-09-09T05:35:44;13.60;99.90
64869;DHT22;51349;52.424;10.840;2022-09-09T05:40:48;13.70;99.90
64869;DHT22;51349;52.424;10.840;2022-09-09T05:46:36;13.90;99.90
64869;DHT22;51349;52.424;10.840;2022-09-09T05:51:30;14.00;99.90
64869;DHT22;51349;52.424;10.840;2022-09-09T05:56:31;14.10;99.90
64869;DHT22;51349;52.424;10.840;2022-09-09T06:01:34;14.10;99.90
64869;DHT22;51349;52.424;10.840;2022-09-09T06:06:36;14.20;99.90
64869;DHT22;51349;52.424;10.840;2022-09-09T06:11:39;14.30;99.90
64869;DHT22;51349;52.424;10.840;2022-09-09T06:16:40;14.30;99.90
64869;DHT22;51349;52.424;10.840;2022-09-09T06:21:43;14.40;99.90
64869;DHT22;51349;52.424;10.840;2022-09-09T06:26:45;14.50;99.90
64869;DHT22;51349;52.424;10.840;2022-09-09T06:31:45;14.60;99.90
64869;DHT22;51349;52.424;10.840;2022-09-09T06:36:47;14.90;99.90
64869;DHT22;51349;52.424;10.840;2022-09-09T06:41:48;15.20;99.90
64869;DHT22;51349;52.424;10.840;2022-09-09T06:46:50;15.50;99.90
64869;DHT22;51349;52.424;10.840;2022-09-09T06:51:50;15.60;99.90
64869;DHT22;51349;52.424;10.840;2022-09-09T06:56:53;15.60;99.90
64869;DHT22;51349;52.424;10.840;2022-09-09T07:01:54;15.70;99.90
64869;DHT22;51349;52.424;10.840;2022-09-09T07:06:55;15.70;99.90
64869;DHT22;51349;52.424;10.840;2022-09-09T07:11:55;15.80;99.90
64869;DHT22;51349;52.424;10.840;2022-09-09T07:16:57;16.10;99.90
64869;DHT22;51349;52.424;10.840;2022-09-09T07:21:58;16.30;99.90
64869;DHT22;51349;52.424;10.840;2022-09-09T07:26:58;16.60;99.90
64869;DHT22;51349;52.424;10.840;2022-09-09T07:32:00;16.90;99.90
64869;DHT22;51349;52.424;10.840;2022-09-09T07:37:00;17.30;99.90
64869;DHT22;51349;52.424;10.840;2022-09-09T07:42:01;17.50;99.90
64869;DHT22;51349;52.424;10.840;2022-09-09T07:47:02;17.70;99.90
64869;DHT22;51349;52.424;10.840;2022-09-09T07:52:03;17.70;99.90
64869;DHT22;51349;52.424;10.840;2022-09-09T07:57:03;18.20;99.90
64869;DHT22;51349;52.424;10.840;2022-09-09T08:02:04;18.70;99.90
64869;DHT22;51349;52.424;10.840;2022-09-09T08:07:05;19.30;99.90
64869;DHT22;51349;52.424;10.840;2022-09-09T08:12:06;19.30;99.90
64869;DHT22;51349;52.424;10.840;2022-09-09T08:17:07;19.20;99.90
64869;DHT22;51349;52.424;10.840;2022-09-09T08:22:08;18.50;99.90
64869;DHT22;51349;52.424;10.840;2022-09-09T08:27:09;18.40;99.90
64869;DHT22;51349;52.424;10.840;2022-09-09T08:32:10;18.50;99.90
64869;DHT22;51349;52.424;10.840;2022-09-09T08:37:10;18.80;99.90
64869;DHT22;51349;52.424;10.840;2022-09-09T08:42:38;19.20;99.90
64869;DHT22;51349;52.424;10.840;2022-09-09T08:53:20;19.90;99.90
64869;DHT22;51349;52.424;10.840;2022-09-09T09:08:45;21.40;99.90
64869;DHT22;51349;52.424;10.840;2022-09-09T09:13:54;20.90;99.90
64869;DHT22;51349;52.424;10.840;2022-09-09T09:18:58;21.30;99.90
64869;DHT22;51349;52.424;10.840;2022-09-09T09:24:01;22.30;99.90
64869;DHT22;51349;52.424;10.840;2022-09-09T09:29:11;22.90;99.90
64869;DHT22;51349;52.424;10.840;2022-09-09T09:34:12;23.70;99.90
64869;DHT22;51349;52.424;10.840;2022-09-09T09:39:33;23.00;99.90
64869;DHT22;51349;52.424;10.840;2022-09-09T09:44:38;22.00;99.90
64869;DHT22;51349;52.424;10.840;2022-09-09T09:49:39;22.50;99.90
64869;DHT22;51349;52.424;10.840;2022-09-09T09:54:51;23.00;99.90
64869;DHT22;51349;52.424;10.840;2022-09-09T10:00:22;23.00;99.90
64869;DHT22;51349;52.424;10.840;2022-09-09T10:05:28;24.60;99.90
64869;DHT22;51349;52.424;10.840;2022-09-09T10:37:14;24.20;99.90
64869;DHT22;51349;52.424;10.840;2022-09-09T10:42:18;24.80;99.90
64869;DHT22;51349;52.424;10.840;2022-09-09T10:47:58;24.00;99.90
64869;DHT22;51349;52.424;10.840;2022-09-09T10:53:17;24.20;99.90
64869;DHT22;51349;52.424;10.840;2022-09-09T10:58:24;24.90;99.90
64869;DHT22;51349;52.424;10.840;2022-09-09T11:03:27;24.20;99.20
64869;DHT22;51349;52.424;10.840;2022-09-09T11:08:31;24.50;99.90
64869;DHT22;51349;52.424;10.840;2022-09-09T11:13:42;24.90;99.90
64869;DHT22;51349;52.424;10.840;2022-09-09T11:18:45;25.70;99.70
64869;DHT22;51349;52.424;10.840;2022-09-09T11:23:52;25.70;99.90
64869;DHT22;51349;52.424;10.840;2022-09-09T11:55:29;22.10;99.90
64869;DHT22;51349;52.424;10.840;2022-09-09T12:05:45;21.70;99.90
64869;DHT22;51349;52.424;10.840;2022-09-09T12:10:57;21.90;99.90
64869;DHT22;51349;52.424;10.840;2022-09-09T12:16:00;21.90;99.90
64869;DHT22;51349;52.424;10.840;2022-09-09T12:21:35;22.00;99.90
64869;DHT22;51349;52.424;10.840;2022-09-09T12:27:01;22.00;99.90
64869;DHT22;51349;52.424;10.840;2022-09-09T12:32:24;23.00;99.90
64869;DHT22;51349;52.424;10.840;2022-09-09T12:37:37;21.70;98.60
64869;DHT22;51349;52.424;10.840;2022-09-09T12:42:40;21.00;99.90
64869;DHT22;51349;52.424;10.840;2022-09-09T12:53:30;21.00;99.90
64869;DHT22;51349;52.424;10.840;2022-09-09T12:58:32;21.20;99.90
64869;DHT22;51349;52.424;10.840;2022-09-09T13:03:41;21.50;99.90
64869;DHT22;51349;52.424;10.840;2022-09-09T13:08:43;21.70;99.90
64869;DHT22;51349;52.424;10.840;2022-09-09T13:13:50;21.80;99.90
64869;DHT22;51349;52.424;10.840;2022-09-09T13:18:52;22.20;99.90
64869;DHT22;51349;52.424;10.840;2022-09-09T13:23:52;22.50;99.90
64869;DHT22;51349;52.424;10.840;2022-09-09T13:28:54;22.50;99.90
64869;DHT22;51349;52.424;10.840;2022-09-09T13:33:55;22.50;99.90
64869;DHT22;51349;52.424;10.840;2022-09-09T13:39:01;22.50;99.90
64869;DHT22;51349;52.424;10.840;2022-09-09T13:44:04;22.30;99.90
64869;DHT22;51349;52.424;10.840;2022-09-09T13:54:10;22.00;99.90
64869;DHT22;51349;52.424;10.840;2022-09-09T13:59:13;21.80;99.90
64869;DHT22;51349;52.424;10.840;2022-09-09T14:04:14;21.50;99.90
64869;DHT22;51349;52.424;10.840;2022-09-09T14:09:17;21.70;99.90
64869;DHT22;51349;52.424;10.840;2022-09-09T14:14:18;21.40;99.90
64869;DHT22;51349;52.424;10.840;2022-09-09T14:19:19;22.10;99.90
64869;DHT22;51349;52.424;10.840;2022-09-09T14:24:20;21.90;99.90
64869;DHT22;51349;52.424;10.840;2022-09-09T14:29:20;22.20;99.90
64869;DHT22;51349;52.424;10.840;2022-09-09T14:34:21;22.40;99.90
64869;DHT22;51349;52.424;10.840;2022-09-09T14:39:22;22.20;99.90
64869;DHT22;51349;52.424;10.840;2022-09-09T14:44:23;22.10;99.90
64869;DHT22;51349;52.424;10.840;2022-09-09T14:49:24;22.20;99.90
64869;DHT22;51349;52.424;10.840;2022-09-09T14:54:25;22.40;99.90
64869;DHT22;51349;52.424;10.840;2022-09-09T14:59:29;22.80;99.90
64869;DHT22;51349;52.424;10.840;2022-09-09T15:04:30;22.60;99.90
64869;DHT22;51349;52.424;10.840;2022-09-09T15:09:30;22.80;99.90
64869;DHT22;51349;52.424;10.840;2022-09-09T15:14:31;22.30;99.90
64869;DHT22;51349;52.424;10.840;2022-09-09T15:19:32;22.40;99.90
64869;DHT22;51349;52.424;10.840;2022-09-09T15:24:32;22.60;99.90
64869;DHT22;51349;52.424;10.840;2022-09-09T15:29:33;22.40;99.90
64869;DHT22;51349;52.424;10.840;2022-09-09T15:34:37;21.90;99.90
64869;DHT22;51349;52.424;10.840;2022-09-09T15:39:39;21.50;99.90
64869;DHT22;51349;52.424;10.840;2022-09-09T15:44:41;21.20;99.90
64869;DHT22;51349;52.424;10.840;2022-09-09T15:49:42;21.00;99.90
64869;DHT22;51349;52.424;10.840;2022-09-09T15:54:43;20.80;99.90
64869;DHT22;51349;52.424;10.840;2022-09-09T15:59:45;20.80;99.90
64869;DHT22;51349;52.424;10.840;2022-09-09T16:04:45;21.00;99.90
64869;DHT22;51349;52.424;10.840;2022-09-09T16:09:46;21.90;99.90
64869;DHT22;51349;52.424;10.840;2022-09-09T16:14:49;22.50;99.90
64869;DHT22;51349;52.424;10.840;2022-09-09T16:19:50;22.50;99.90
64869;DHT22;51349;52.424;10.840;2022-09-09T16:24:51;21.70;99.90
64869;DHT22;51349;52.424;10.840;2022-09-09T16:29:51;21.20;99.90
64869;DHT22;51349;52.424;10.840;2022-09-09T16:34:52;21.30;99.90
64869;DHT22;51349;52.424;10.840;2022-09-09T16:39:53;21.00;99.90
64869;DHT22;51349;52.424;10.840;2022-09-09T16:44:54;21.00;99.90
64869;DHT22;51349;52.424;10.840;2022-09-09T16:49:55;21.80;99.90
64869;DHT22;51349;52.424;10.840;2022-09-09T16:54:58;21.90;99.90
64869;DHT22;51349;52.424;10.840;2022-09-09T16:59:59;21.70;99.90
64869;DHT22;51349;52.424;10.840;2022-09-09T17:05:00;21.10;99.90
64869;DHT22;51349;52.424;10.840;2022-09-09T17:10:00;20.80;99.90
64869;DHT22;51349;52.424;10.840;2022-09-09T17:15:05;20.70;99.90
64869;DHT22;51349;52.424;10.840;2022-09-09T17:20:06;20.40;99.90
64869;DHT22;51349;52.424;10.840;2022-09-09T17:25:07;20.30;99.90
64869;DHT22;51349;52.424;10.840;2022-09-09T17:30:08;20.10;99.90
64869;DHT22;51349;52.424;10.840;2022-09-09T17:35:09;19.90;99.90
64869;DHT22;51349;52.424;10.840;2022-09-09T17:40:10;19.60;99.90
64869;DHT22;51349;52.424;10.840;2022-09-09T17:45:11;19.40;99.90
64869;DHT22;51349;52.424;10.840;2022-09-09T17:50:12;19.10;99.90
64869;DHT22;51349;52.424;10.840;2022-09-09T17:55:13;18.90;99.90
64869;DHT22;51349;52.424;10.840;2022-09-09T18:00:14;18.60;99.90
64869;DHT22;51349;52.424;10.840;2022-09-09T18:05:15;18.40;99.90
64869;DHT22;51349;52.424;10.840;2022-09-09T18:10:18;18.20;99.90
64869;DHT22;51349;52.424;10.840;2022-09-09T18:15:19;18.00;99.90
64869;DHT22;51349;52.424;10.840;2022-09-09T18:20:20;17.60;99.90
64869;DHT22;51349;52.424;10.840;2022-09-09T18:25:21;17.50;99.90
64869;DHT22;51349;52.424;10.840;2022-09-09T18:30:28;17.60;99.90
64869;DHT22;51349;52.424;10.840;2022-09-09T18:35:31;17.50;99.90
64869;DHT22;51349;52.424;10.840;2022-09-09T18:40:32;17.30;99.90
64869;DHT22;51349;52.424;10.840;2022-09-09T18:45:35;17.20;99.90
64869;DHT22;51349;52.424;10.840;2022-09-09T18:50:37;17.30;99.90
64869;DHT22;51349;52.424;10.840;2022-09-09T18:55:37;17.20;99.90
64869;DHT22;51349;52.424;10.840;2022-09-09T19:00:38;17.10;99.90
64869;DHT22;51349;52.424;10.840;2022-09-09T19:05:38;17.10;99.90
64869;DHT22;51349;52.424;10.840;2022-09-09T19:10:39;17.00;99.90
64869;DHT22;51349;52.424;10.840;2022-09-09T19:15:41;16.90;99.90
64869;DHT22;51349;52.424;10.840;2022-09-09T19:20:41;16.80;99.90
64869;DHT22;51349;52.424;10.840;2022-09-09T19:25:42;16.70;99.90
64869;DHT22;51349;52.424;10.840;2022-09-09T19:30:42;16.70;99.90
64869;DHT22;51349;52.424;10.840;2022-09-09T19:35:56;16.60;99.90
64869;DHT22;51349;52.424;10.840;2022-09-09T19:41:05;16.40;99.90
64869;DHT22;51349;52.424;10.840;2022-09-09T19:46:11;16.30;99.90
64869;DHT22;51349;52.424;10.840;2022-09-09T19:51:19;16.20;99.90
64869;DHT22;51349;52.424;10.840;2022-09-09T19:56:22;16.20;99.90
64869;DHT22;51349;52.424;10.840;2022-09-09T20:01:30;16.10;99.90
64869;DHT22;51349;52.424;10.840;2022-09-09T20:06:37;16.00;99.90
64869;DHT22;51349;52.424;10.840;2022-09-09T20:11:41;15.90;99.90
64869;DHT22;51349;52.424;10.840;2022-09-09T20:16:42;15.80;99.90
64869;DHT22;51349;52.424;10.840;2022-09-09T20:21:46;15.70;99.90
64869;DHT22;51349;52.424;10.840;2022-09-09T20:26:49;15.60;99.90
64869;DHT22;51349;52.424;10.840;2022-09-09T20:31:50;15.60;99.90
64869;DHT22;51349;52.424;10.840;2022-09-09T20:36:51;15.60;99.90
64869;DHT22;51349;52.424;10.840;2022-09-09T20:41:53;15.60;99.90
64869;DHT22;51349;52.424;10.840;2022-09-09T20:47:00;15.70;99.90
64869;DHT22;51349;52.424;10.840;2022-09-09T20:52:05;15.80;99.90
64869;DHT22;51349;52.424;10.840;2022-09-09T20:57:06;15.80;99.90
64869;DHT22;51349;52.424;10.840;2022-09-09T21:02:08;15.80;99.90
64869;DHT22;51349;52.424;10.840;2022-09-09T21:07:10;15.80;99.90
64869;DHT22;51349;52.424;10.840;2022-09-09T21:12:11;15.90;99.90
64869;DHT22;51349;52.424;10.840;2022-09-09T21:17:11;15.80;99.90
64869;DHT22;51349;52.424;10.840;2022-09-09T21:22:12;15.80;99.90
64869;DHT22;51349;52.424;10.840;2022-09-09T21:27:13;15.80;99.90
64869;DHT22;51349;52.424;10.840;2022-09-09T21:32:14;15.90;99.90
64869;DHT22;51349;52.424;10.840;2022-09-09T21:37:17;15.80;99.90
64869;DHT22;51349;52.424;10.840;2022-09-09T21:42:18;15.80;99.90
64869;DHT22;51349;52.424;10.840;2022-09-09T21:47:18;15.90;99.90
64869;DHT22;51349;52.424;10.840;2022-09-09T21:52:19;15.80;99.90
64869;DHT22;51349;52.424;10.840;2022-09-09T21:57:19;15.80;99.90
64869;DHT22;51349;52.424;10.840;2022-09-09T22:02:21;15.80;99.90
64869;DHT22;51349;52.424;10.840;2022-09-09T22:07:22;15.70;99.90
64869;DHT22;51349;52.424;10.840;2022-09-09T22:12:22;15.60;99.90
64869;DHT22;51349;52.424;10.840;2022-09-09T22:17:26;15.70;99.90
64869;DHT22;51349;52.424;10.840;2022-09-09T22:22:27;15.50;99.90
64869;DHT22;51349;52.424;10.840;2022-09-09T22:27:28;15.50;99.90
64869;DHT22;51349;52.424;10.840;2022-09-09T22:32:28;15.40;99.90
64869;DHT22;51349;52.424;10.840;2022-09-09T22:37:29;15.40;99.90
64869;DHT22;51349;52.424;10.840;2022-09-09T22:42:29;15.50;99.90
64869;DHT22;51349;52.424;10.840;2022-09-09T22:47:30;15.50;99.90
64869;DHT22;51349;52.424;10.840;2022-09-09T22:52:30;15.40;99.90
64869;DHT22;51349;52.424;10.840;2022-09-09T22:57:31;15.40;99.90
64869;DHT22;51349;52.424;10.840;2022-09-09T23:02:32;15.30;99.90
64869;DHT22;51349;52.424;10.840;2022-09-09T23:07:35;15.20;99.90
64869;DHT22;51349;52.424;10.840;2022-09-09T23:12:36;15.20;99.90
64869;DHT22;51349;52.424;10.840;2022-09-09T23:17:39;15.10;99.90
64869;DHT22;51349;52.424;10.840;2022-09-09T23:22:40;15.00;99.90
64869;DHT22;51349;52.424;10.840;2022-09-09T23:27:40;14.90;99.90
64869;DHT22;51349;52.424;10.840;2022-09-09T23:32:41;14.70;99.90
64869;DHT22;51349;52.424;10.840;2022-09-09T23:37:46;14.70;99.90
64869;DHT22;51349;52.424;10.840;2022-09-09T23:42:47;14.60;99.90
64869;DHT22;51349;52.424;10.840;2022-09-09T23:47:48;14.50;99.90
64869;DHT22;51349;52.424;10.840;2022-09-09T23:52:48;14.30;99.90
64869;DHT22;51349;52.424;10.840;2022-09-09T23:57:49;14.30;99.90
